Overview Statistics Trail Chart Weather Telemetry Raw packets
 

This is the latest recevied weather packets stored in our database for station/object W4UWO. If no packets are shown the sender has not sent any weather packets the latest 10 day(s).

<< 10 11 12 13 14 15 16 >>
Time Temp. Humidity Pressure Rain* Wind** Luminosity Snow
1788550066 37.78° C 39% 1016.1 hPa 0 mm - 268 W/m² -
1788549761 37.78° C 39% 1016.4 hPa 0 mm - 253 W/m² -
1788549458 37.78° C 41% 1016.7 hPa 0 mm - 782 W/m² -
1788549154 37.78° C 40% 1016.5 hPa 0 mm - 775 W/m² -
1788548850 37.78° C 40% 1016.7 hPa 0 mm - 763 W/m² -
1788548546 36.67° C 44% 1016.7 hPa 0 mm - 710 W/m² -
1788548243 36.11° C 44% 1016.7 hPa 0 mm - 314 W/m² -
1788547942 36.67° C 43% 1016.9 hPa 0 mm - 249 W/m² -
1788547640 36.11° C 44% 1016.8 hPa 0 mm - 233 W/m² -
1788547337 36.11° C 44% 1016.8 hPa 0 mm - 715 W/m² -
1788547032 36.11° C 45% 1017 hPa 0 mm - 169 W/m² -
1788546727 36.11° C 44% 1016.9 hPa 0 mm - 203 W/m² -
1788546422 36.11° C 44% 1017 hPa 0 mm - 211 W/m² -
1788546117 36.67° C 44% 1016.8 hPa 0 mm - 208 W/m² -
1788545813 37.78° C 42% 1016.9 hPa 0 mm - 245 W/m² -
1788545512 38.33° C 41% 1016.9 hPa 0 mm - 556 W/m² -
1788545208 38.33° C 40% 1017 hPa 0 mm - 935 W/m² -
1788544903 38.33° C 40% 1017.1 hPa 0 mm - 955 W/m² -
1788544626 37.78° C 41% 1017.2 hPa 0 mm - 914 W/m² -
1788544300 37.78° C 41% 1017 hPa 0 mm - 898 W/m² -
1788543996 37.22° C 42% 1017.2 hPa 0 mm - 894 W/m² -
1788543692 37.78° C 42% 1017.3 hPa 0 mm - 604 W/m² -
1788543387 37.22° C 43% 1017.4 hPa 0 mm - 895 W/m² -
1788543082 37.22° C 43% 1017.4 hPa 0 mm - 894 W/m² -
1788542779 37.22° C 43% 1017.6 hPa 0 mm - 851 W/m² -

* Rain latest hour (hover to see other rain measurements)
** Current wind speed in m/s (hover to see current wind gust speed)